Nunda, South Dakota
Current Conditions -  °F | °C
As of 2:10 AM on Tuesday 27 Jan 2015 (Local Time) from KMDS Reporting Station
Clear Clear  
Wind Chill: 30°   Ceiling: Unl
Heat Index: 30°   Visibility: 10mi
Dew Point: 30°   Wind: 3mph
Humidity: 100%   Direction: 10°N
Pressure: 30.03"   Gusts: NA
Location:  44.16°N, 97.02°W
Report Text: KMDS 270810Z AUTO 01003KT 10SM CLR M01/M01 A3003 RMK AO2
Loading
Personal Weather Stations






























Interactive Weather Map New forecast layout! Learn more

10-Day Weather Forecast

Advertisements
Track Severe Weather on mobile